Time;durP1;ratioP1;P1;durP2;ratioP2;P2;SDS_P1;SDS_P2;PMS_P1;PMS_P2;Temp;Humidity;BMP_temperature;BMP_pressure;BME280_temperature;BME280_humidity;BME280_pressure;Samples;Min_cycle;Max_cycle;Signal;HPM_P1;HPM_P2
2022/05/14 00:01:11;;;;;;;3.57;2.00;;;11.30;99.90;;;;;;5033443;28;20206;-56
2022/05/14 00:03:39;;;;;;;5.93;2.03;;;11.20;99.90;;;;;;5033004;28;20207;-57
2022/05/14 00:06:09;;;;;;;6.77;2.10;;;11.20;99.90;;;;;;5032785;28;20242;-58
2022/05/14 00:08:36;;;;;;;6.33;2.40;;;11.10;99.90;;;;;;5032858;28;20214;-58
2022/05/14 00:13:48;;;;;;;4.30;2.13;;;10.90;99.90;;;;;;5032603;28;20204;-57
2022/05/14 00:16:17;;;;;;;2.90;2.20;;;10.80;99.90;;;;;;5032757;28;20234;-57
2022/05/14 00:18:45;;;;;;;7.10;2.40;;;10.90;99.90;;;;;;5032469;28;20206;-58
2022/05/14 00:21:12;;;;;;;4.90;2.70;;;10.90;99.90;;;;;;5032409;28;20206;-58
2022/05/14 00:23:39;;;;;;;5.17;2.30;;;10.90;99.90;;;;;;5032483;28;20213;-58
2022/05/14 00:26:06;;;;;;;6.70;2.07;;;10.80;99.90;;;;;;5032462;28;20226;-57
2022/05/14 00:28:34;;;;;;;7.20;2.00;;;10.90;99.90;;;;;;5032518;28;20206;-59
2022/05/14 00:31:01;;;;;;;4.50;1.97;;;10.80;99.90;;;;;;5032375;28;20226;-57
2022/05/14 00:33:29;;;;;;;5.97;1.77;;;10.80;99.90;;;;;;5032115;28;20206;-58
2022/05/14 00:35:55;;;;;;;4.27;1.83;;;10.80;99.90;;;;;;5031969;28;20226;-57
2022/05/14 00:38:22;;;;;;;5.70;1.80;;;10.80;99.90;;;;;;5032314;28;20206;-57
2022/05/14 00:40:57;;;;;;;3.67;2.00;;;10.70;99.90;;;;;;5032248;28;20236;-57
2022/05/14 00:43:23;;;;;;;5.40;1.73;;;10.70;99.90;;;;;;5031955;28;20206;-58
2022/05/14 00:45:55;;;;;;;3.53;2.40;;;10.80;99.90;;;;;;5031853;28;20237;-58
2022/05/14 00:48:23;;;;;;;4.83;1.80;;;10.80;99.90;;;;;;5032074;28;20293;-57
2022/05/14 00:50:54;;;;;;;9.10;2.10;;;10.80;99.90;;;;;;5031207;28;20317;-57
2022/05/14 00:53:26;;;;;;;4.80;1.90;;;10.80;99.90;;;;;;5031933;28;20264;-57
2022/05/14 00:55:55;;;;;;;2.83;1.87;;;10.80;99.90;;;;;;5031929;28;20226;-58
2022/05/14 00:58:30;;;;;;;3.43;1.63;;;10.80;99.90;;;;;;5031980;28;20344;-59
2022/05/14 01:00:57;;;;;;;5.87;1.90;;;10.70;99.90;;;;;;5031678;28;20748;-58
2022/05/14 01:03:24;;;;;;;3.23;2.10;;;10.60;99.90;;;;;;5031648;28;20672;-58
2022/05/14 01:05:53;;;;;;;3.63;2.00;;;10.60;99.90;;;;;;5031697;28;20320;-57
2022/05/14 01:08:20;;;;;;;5.53;1.93;;;10.60;99.90;;;;;;5031903;28;20248;-58
2022/05/14 01:10:48;;;;;;;4.30;1.73;;;10.60;99.90;;;;;;5031749;28;20269;-58
2022/05/14 01:13:15;;;;;;;4.23;2.00;;;10.60;99.90;;;;;;5031617;28;20268;-59
2022/05/14 01:15:49;;;;;;;3.37;1.80;;;10.50;99.90;;;;;;5031854;28;20214;-59
2022/05/14 01:18:17;;;;;;;3.97;1.90;;;10.50;99.90;;;;;;5032062;28;20722;-57
2022/05/14 01:20:50;;;;;;;3.70;1.87;;;10.40;99.90;;;;;;5031800;28;20214;-58
2022/05/14 01:23:27;;;;;;;2.83;1.80;;;10.40;99.90;;;;;;5031509;28;20217;-57
2022/05/14 01:26:29;;;;;;;5.90;2.00;;;10.40;99.90;;;;;;5031223;28;20226;-57
2022/05/14 01:28:57;;;;;;;1.90;1.60;;;10.30;99.90;;;;;;5032153;28;20210;-58
2022/05/14 01:31:24;;;;;;;3.43;1.90;;;10.30;99.90;;;;;;5031492;28;20226;-57
2022/05/14 01:33:51;;;;;;;3.90;2.20;;;10.20;99.90;;;;;;5031317;28;20670;-57
2022/05/14 01:36:18;;;;;;;5.87;2.20;;;10.10;99.90;;;;;;5031452;28;20230;-57
2022/05/14 01:38:45;;;;;;;7.77;1.93;;;10.10;99.90;;;;;;5031671;28;20265;-58
2022/05/14 01:41:13;;;;;;;5.37;2.00;;;10.20;99.90;;;;;;5031601;28;20202;-57
2022/05/14 01:43:40;;;;;;;2.57;1.90;;;10.20;99.90;;;;;;5031381;28;20210;-58
2022/05/14 01:46:07;;;;;;;6.27;1.97;;;10.20;99.90;;;;;;5031297;28;20731;-56
2022/05/14 01:48:34;;;;;;;6.70;2.03;;;10.20;99.90;;;;;;5031410;28;20210;-57
2022/05/14 01:51:01;;;;;;;5.20;1.80;;;10.20;99.90;;;;;;5031132;28;20690;-57
2022/05/14 01:53:28;;;;;;;3.40;2.10;;;10.20;99.90;;;;;;5031322;28;20214;-57
2022/05/14 01:55:55;;;;;;;2.80;1.93;;;10.20;99.90;;;;;;5031226;28;20226;-57
2022/05/14 01:58:38;;;;;;;1.90;1.60;;;10.20;99.90;;;;;;5031263;28;20213;-58
2022/05/14 02:01:11;;;;;;;3.90;1.60;;;10.20;99.90;;;;;;5031388;28;20206;-58
2022/05/14 02:03:38;;;;;;;4.03;1.40;;;10.30;99.90;;;;;;5034482;28;20700;-58
2022/05/14 02:06:06;;;;;;;4.37;1.90;;;10.20;99.90;;;;;;5035001;28;20238;-57
2022/05/14 02:08:33;;;;;;;4.13;2.03;;;10.20;99.90;;;;;;5035150;28;20732;-57
2022/05/14 02:11:00;;;;;;;3.60;1.67;;;10.30;99.90;;;;;;5034877;28;20210;-57
2022/05/14 02:13:29;;;;;;;4.80;1.80;;;10.30;99.90;;;;;;5034739;28;20206;-57
2022/05/14 02:15:56;;;;;;;4.20;2.00;;;10.30;99.90;;;;;;5034680;28;20323;-58
2022/05/14 02:18:23;;;;;;;3.53;1.63;;;10.20;99.90;;;;;;5035035;28;20217;-57
2022/05/14 02:20:50;;;;;;;3.00;1.60;;;10.20;99.90;;;;;;5034961;28;20638;-58
2022/05/14 02:23:17;;;;;;;3.80;1.97;;;10.20;99.90;;;;;;5034615;28;20619;-58
2022/05/14 02:25:44;;;;;;;8.80;2.17;;;10.20;99.90;;;;;;5034490;28;20206;-58
2022/05/14 02:28:11;;;;;;;3.17;1.90;;;10.20;99.90;;;;;;5034489;28;20554;-57
2022/05/14 02:30:40;;;;;;;4.03;1.90;;;10.20;99.90;;;;;;5034489;28;20574;-59
2022/05/14 02:33:07;;;;;;;5.07;1.67;;;10.20;99.90;;;;;;5034486;28;20222;-57
2022/05/14 02:35:34;;;;;;;4.27;1.80;;;10.10;99.90;;;;;;5034635;28;20214;-57
2022/05/14 02:38:01;;;;;;;9.20;2.17;;;10.10;99.90;;;;;;5034447;28;20670;-58
2022/05/14 02:40:27;;;;;;;6.23;1.90;;;10.10;99.90;;;;;;5034579;28;20667;-57
2022/05/14 02:42:54;;;;;;;5.70;1.93;;;10.10;99.90;;;;;;5034355;28;20248;-57
2022/05/14 02:45:21;;;;;;;5.20;1.90;;;10.10;99.90;;;;;;5034601;28;20268;-58
2022/05/14 02:47:49;;;;;;;6.50;1.70;;;10.10;99.90;;;;;;5034680;28;20234;-58
2022/05/14 02:50:17;;;;;;;3.97;1.90;;;10.10;99.90;;;;;;5034669;28;20252;-57
2022/05/14 02:52:44;;;;;;;9.43;2.13;;;10.10;99.90;;;;;;5034433;28;20230;-57
2022/05/14 02:55:11;;;;;;;4.47;1.73;;;10.10;99.90;;;;;;5034062;28;20221;-59
2022/05/14 02:57:38;;;;;;;5.53;2.00;;;10.00;99.90;;;;;;5034568;28;20226;-58
2022/05/14 03:00:08;;;;;;;6.20;1.90;;;10.00;99.90;;;;;;5034297;28;20210;-58
2022/05/14 03:02:34;;;;;;;4.77;2.00;;;10.00;99.90;;;;;;5034174;28;20198;-57
2022/05/14 03:05:04;;;;;;;4.47;1.87;;;9.90;99.90;;;;;;5033855;28;20233;-58
2022/05/14 03:07:30;;;;;;;4.63;1.93;;;9.90;99.90;;;;;;5034088;28;20237;-58
2022/05/14 03:09:57;;;;;;;4.80;1.90;;;9.90;99.90;;;;;;5033751;28;20245;-60
2022/05/14 03:12:24;;;;;;;4.23;1.80;;;9.90;99.90;;;;;;5034037;28;20303;-59
2022/05/14 03:14:51;;;;;;;3.40;2.07;;;9.80;99.90;;;;;;5032990;28;20206;-57
2022/05/14 03:17:18;;;;;;;5.90;2.33;;;9.80;99.90;;;;;;5033707;28;20578;-57
2022/05/14 03:19:45;;;;;;;6.83;1.70;;;9.70;99.90;;;;;;5033905;28;20213;-57
2022/05/14 03:22:13;;;;;;;2.57;1.70;;;9.80;99.90;;;;;;5033656;28;20257;-58
2022/05/14 03:24:40;;;;;;;3.77;1.63;;;9.70;99.90;;;;;;5033379;28;20600;-58
2022/05/14 03:27:08;;;;;;;6.27;1.93;;;9.60;99.90;;;;;;5033708;28;20226;-58
2022/05/14 03:29:35;;;;;;;4.50;1.90;;;9.70;99.90;;;;;;5033446;28;20740;-57
2022/05/14 03:32:02;;;;;;;3.53;1.77;;;9.70;99.90;;;;;;5033358;28;20226;-58
2022/05/14 03:34:28;;;;;;;6.53;2.00;;;9.70;99.90;;;;;;5033291;28;20217;-58
2022/05/14 03:36:55;;;;;;;3.43;1.83;;;9.60;99.90;;;;;;5033323;28;20233;-58
2022/05/14 03:39:23;;;;;;;7.63;1.90;;;9.60;99.90;;;;;;5033245;28;20210;-58
2022/05/14 03:41:50;;;;;;;6.63;2.40;;;9.60;99.90;;;;;;5033462;28;20232;-58
2022/05/14 03:44:17;;;;;;;3.20;2.27;;;9.60;99.90;;;;;;5032878;28;20678;-57
2022/05/14 03:46:44;;;;;;;4.90;1.97;;;9.60;99.90;;;;;;5033049;28;20230;-57
2022/05/14 03:49:11;;;;;;;4.87;2.00;;;9.70;99.90;;;;;;5033209;28;20206;-57
2022/05/14 03:51:37;;;;;;;4.93;2.07;;;9.70;99.90;;;;;;5032955;28;20210;-57
2022/05/14 03:54:05;;;;;;;5.03;1.90;;;9.60;99.90;;;;;;5033019;28;20214;-58
2022/05/14 03:56:33;;;;;;;3.03;2.00;;;9.60;99.90;;;;;;5032911;28;20304;-57
2022/05/14 03:59:00;;;;;;;5.77;1.67;;;9.70;99.90;;;;;;5032867;28;20771;-59
2022/05/14 04:01:27;;;;;;;2.77;1.90;;;9.70;99.90;;;;;;5032924;28;20205;-58
2022/05/14 04:03:54;;;;;;;5.47;2.13;;;9.70;99.90;;;;;;5032577;28;20206;-58
2022/05/14 04:06:20;;;;;;;4.67;2.07;;;9.80;99.90;;;;;;5032375;28;20234;-58
2022/05/14 04:08:47;;;;;;;5.47;2.33;;;9.80;99.90;;;;;;5032826;28;20303;-58
2022/05/14 04:11:14;;;;;;;5.00;2.07;;;9.90;99.90;;;;;;5032847;28;20211;-58
2022/05/14 04:13:42;;;;;;;5.27;2.10;;;9.90;99.90;;;;;;5032224;28;20574;-59
2022/05/14 04:16:09;;;;;;;4.33;1.97;;;9.90;99.90;;;;;;5032518;28;20230;-58
2022/05/14 04:18:36;;;;;;;4.73;2.17;;;9.90;99.90;;;;;;5032575;28;20207;-59
2022/05/14 04:21:03;;;;;;;6.20;2.27;;;9.90;99.90;;;;;;5032522;28;20509;-57
2022/05/14 04:23:31;;;;;;;5.37;2.20;;;10.00;99.90;;;;;;5032376;28;20210;-58
2022/05/14 04:25:59;;;;;;;2.77;1.80;;;10.00;99.90;;;;;;5032389;28;20259;-58
2022/05/14 04:28:27;;;;;;;4.43;1.90;;;10.10;99.90;;;;;;5032332;28;20210;-58
2022/05/14 04:30:57;;;;;;;3.23;2.20;;;10.10;99.90;;;;;;5032319;28;20233;-58
2022/05/14 04:33:25;;;;;;;5.23;2.20;;;10.20;99.90;;;;;;5032121;28;20590;-58
2022/05/14 04:35:52;;;;;;;7.27;2.20;;;10.20;99.90;;;;;;5031982;28;20741;-58
2022/05/14 04:38:18;;;;;;;3.40;2.07;;;10.20;99.90;;;;;;5032312;28;20264;-57
2022/05/14 04:40:45;;;;;;;4.13;2.10;;;10.30;99.90;;;;;;5032109;28;20624;-58
2022/05/14 04:43:14;;;;;;;4.17;2.10;;;10.30;99.90;;;;;;5032185;28;20208;-58
2022/05/14 04:45:42;;;;;;;6.73;2.37;;;10.20;99.90;;;;;;5031801;28;20214;-58
2022/05/14 04:48:10;;;;;;;6.20;2.20;;;10.30;99.90;;;;;;5031986;28;20259;-57
2022/05/14 04:50:38;;;;;;;3.83;1.97;;;10.40;99.90;;;;;;5032027;28;20586;-58
2022/05/14 04:53:04;;;;;;;3.73;2.07;;;10.40;99.90;;;;;;5031983;28;20230;-59
2022/05/14 04:55:33;;;;;;;4.43;2.27;;;10.50;99.90;;;;;;5031912;28;20214;-59
2022/05/14 04:58:00;;;;;;;3.00;2.10;;;10.60;99.90;;;;;;5032075;28;20256;-59
2022/05/14 05:00:27;;;;;;;3.00;2.43;;;10.70;99.90;;;;;;5031876;28;20213;-58
2022/05/14 05:05:39;;;;;;;5.13;2.00;;;10.90;99.90;;;;;;5031464;28;20204;-58
2022/05/14 05:08:06;;;;;;;3.80;2.30;;;11.00;99.90;;;;;;5032271;28;20670;-60
2022/05/14 05:10:34;;;;;;;4.10;2.10;;;11.10;99.90;;;;;;5031997;28;20214;-60
2022/05/14 05:13:00;;;;;;;3.20;2.10;;;11.20;99.90;;;;;;5031551;28;20226;-59
2022/05/14 05:15:27;;;;;;;8.13;2.60;;;11.40;99.90;;;;;;5031693;28;20210;-60
2022/05/14 05:17:54;;;;;;;5.90;2.30;;;11.40;99.90;;;;;;5031783;28;20288;-60
2022/05/14 05:20:21;;;;;;;3.73;1.97;;;11.50;99.90;;;;;;5031901;28;20217;-60
2022/05/14 05:22:49;;;;;;;3.33;2.00;;;11.70;99.90;;;;;;5031713;28;20212;-59
2022/05/14 05:25:16;;;;;;;4.77;2.33;;;11.90;99.90;;;;;;5031337;28;20568;-60
2022/05/14 05:27:43;;;;;;;4.20;2.30;;;12.20;99.90;;;;;;5031455;28;20280;-60
2022/05/14 05:30:10;;;;;;;3.50;1.83;;;13.70;99.90;;;;;;5031788;28;20233;-60
2022/05/14 05:32:37;;;;;;;3.17;1.70;;;16.00;99.90;;;;;;5031544;28;20582;-60
2022/05/14 05:35:05;;;;;;;3.23;1.73;;;17.20;99.90;;;;;;5031373;28;20206;-60
2022/05/14 05:37:32;;;;;;;4.83;1.67;;;17.30;99.90;;;;;;5033173;28;20230;-59
2022/05/14 05:40:00;;;;;;;2.88;1.65;;;17.80;99.90;;;;;;5035389;28;20210;-59
2022/05/14 05:42:27;;;;;;;3.47;1.65;;;19.40;99.90;;;;;;5035731;28;20256;-58
2022/05/14 05:44:53;;;;;;;5.10;1.70;;;21.30;99.90;;;;;;5035342;28;20233;-59
2022/05/14 05:47:20;;;;;;;2.72;1.60;;;23.00;99.90;;;;;;5035344;28;20757;-59
2022/05/14 05:49:47;;;;;;;6.45;1.73;;;24.60;96.70;;;;;;5035324;28;20748;-59
2022/05/14 05:52:13;;;;;;;6.40;1.60;;;25.90;92.90;;;;;;5035136;28;20206;-59
2022/05/14 05:57:35;;;;;;;3.58;1.80;;;27.70;84.30;;;;;;5035226;28;20661;-59
2022/05/14 06:00:04;;;;;;;3.72;1.88;;;28.40;78.30;;;;;;5035334;28;20252;-59
2022/05/14 06:02:30;;;;;;;3.03;1.52;;;29.00;75.50;;;;;;5035298;28;20213;-59
2022/05/14 06:04:57;;;;;;;3.13;2.05;;;29.90;71.70;;;;;;5034897;28;20210;-59
2022/05/14 06:07:24;;;;;;;1.98;1.48;;;30.70;68.80;;;;;;5034840;28;20242;-60
2022/05/14 06:09:50;;;;;;;5.82;2.03;;;31.50;64.20;;;;;;5034998;28;20217;-58
2022/05/14 06:12:17;;;;;;;3.10;1.70;;;32.30;60.70;;;;;;5034862;28;20210;-58
2022/05/14 06:14:45;;;;;;;3.35;1.42;;;32.90;59.40;;;;;;5034630;28;20210;-59
2022/05/14 06:17:12;;;;;;;5.63;2.10;;;33.60;57.00;;;;;;5034880;28;20292;-58
2022/05/14 06:19:39;;;;;;;3.10;1.65;;;34.20;55.30;;;;;;5034840;28;20236;-58
2022/05/14 06:22:06;;;;;;;7.20;2.08;;;34.50;53.80;;;;;;5034994;28;20202;-58
2022/05/14 06:24:32;;;;;;;4.63;1.58;;;34.80;52.80;;;;;;5034492;28;20679;-58
2022/05/14 06:26:59;;;;;;;3.97;1.58;;;34.70;51.70;;;;;;5034726;28;20253;-58
2022/05/14 06:29:26;;;;;;;3.30;1.60;;;34.70;51.30;;;;;;5034844;28;20210;-58
2022/05/14 06:31:54;;;;;;;2.85;1.70;;;34.70;51.20;;;;;;5034526;28;20667;-58
2022/05/14 06:34:21;;;;;;;2.38;1.30;;;34.80;51.00;;;;;;5034140;28;20249;-58
2022/05/14 06:36:47;;;;;;;4.00;1.67;;;35.10;50.30;;;;;;5034450;28;20652;-59
2022/05/14 06:39:14;;;;;;;6.28;1.83;;;35.50;49.30;;;;;;5034582;28;20216;-59
2022/05/14 06:41:41;;;;;;;3.28;1.58;;;35.80;48.20;;;;;;5034392;28;20210;-59
2022/05/14 06:44:08;;;;;;;5.78;1.77;;;36.20;47.60;;;;;;5034162;28;20272;-58
2022/05/14 06:46:35;;;;;;;5.65;1.58;;;36.50;46.90;;;;;;5034285;28;20280;-60
2022/05/14 06:49:04;;;;;;;3.97;1.48;;;37.10;46.00;;;;;;5032706;28;20264;-60
2022/05/14 06:51:33;;;;;;;8.07;6.32;;;37.90;45.00;;;;;;5034424;28;20623;-57
2022/05/14 06:54:02;;;;;;;5.88;1.80;;;38.70;44.00;;;;;;5033893;28;20230;-56
2022/05/14 06:56:32;;;;;;;23.02;19.85;;;39.10;42.90;;;;;;5034033;28;20318;-55
2022/05/14 06:59:00;;;;;;;4.32;2.00;;;39.30;41.80;;;;;;5033947;28;20206;-56
2022/05/14 07:01:28;;;;;;;3.38;1.65;;;39.60;41.60;;;;;;5034108;28;20206;-56
2022/05/14 07:06:43;;;;;;;2.47;1.40;;;40.40;39.50;;;;;;5033812;28;20319;-56
2022/05/14 07:09:13;;;;;;;6.75;2.10;;;40.30;39.40;;;;;;5033959;28;20220;-56
2022/05/14 07:11:41;;;;;;;3.78;2.35;;;40.00;39.50;;;;;;5033855;28;20214;-56
2022/05/14 07:14:09;;;;;;;3.28;1.85;;;39.30;40.40;;;;;;5033756;28;20234;-56
2022/05/14 07:16:37;;;;;;;3.33;1.67;;;38.50;41.00;;;;;;5033897;28;20257;-56
2022/05/14 07:19:06;;;;;;;3.55;1.95;;;38.70;41.00;;;;;;5033831;28;20206;-56
2022/05/14 07:21:33;;;;;;;2.35;1.60;;;38.80;40.70;;;;;;5033858;28;20209;-57
2022/05/14 07:24:03;;;;;;;4.25;1.50;;;38.50;40.70;;;;;;5033496;28;20206;-57
2022/05/14 07:26:30;;;;;;;2.65;1.30;;;39.00;39.20;;;;;;5033468;28;20226;-56
2022/05/14 07:28:57;;;;;;;4.93;1.05;;;38.00;40.40;;;;;;5033925;28;20203;-56
2022/05/14 07:31:23;;;;;;;3.55;1.38;;;37.20;40.50;;;;;;5033708;28;20210;-56
2022/05/14 07:33:51;;;;;;;2.40;1.10;;;37.50;40.10;;;;;;5033398;28;20226;-56
2022/05/14 07:36:22;;;;;;;2.42;0.75;;;37.90;36.60;;;;;;5033640;28;20324;-56
2022/05/14 07:38:49;;;;;;;4.35;1.08;;;37.40;37.00;;;;;;5033372;28;20206;-56
2022/05/14 07:41:18;;;;;;;2.25;0.85;;;35.90;38.30;;;;;;5033543;28;20206;-57
2022/05/14 07:43:48;;;;;;;0.85;0.75;;;35.10;39.30;;;;;;5033225;28;20206;-56
2022/05/14 07:46:18;;;;;;;3.53;1.15;;;35.30;40.20;;;;;;5033388;28;20229;-56
2022/05/14 07:48:47;;;;;;;2.60;0.98;;;37.00;38.60;;;;;;5033410;28;20202;-57
2022/05/14 07:51:14;;;;;;;5.32;1.15;;;38.60;37.20;;;;;;5033103;28;20259;-57
2022/05/14 07:53:41;;;;;;;6.00;1.50;;;39.90;35.50;;;;;;5033021;28;20316;-57
2022/05/14 07:56:09;;;;;;;3.95;1.25;;;40.60;34.50;;;;;;5033317;28;20510;-57
2022/05/14 07:58:37;;;;;;;5.65;1.10;;;39.80;34.90;;;;;;5033328;28;20210;-57
2022/05/14 08:01:04;;;;;;;3.17;1.05;;;39.90;35.20;;;;;;5033165;28;20692;-57
2022/05/14 08:03:32;;;;;;;1.88;0.98;;;39.90;34.50;;;;;;5033248;28;20232;-57
2022/05/14 08:05:59;;;;;;;3.45;2.45;;;39.50;35.10;;;;;;5032870;28;20233;-57
2022/05/14 08:08:27;;;;;;;3.67;1.30;;;40.00;34.10;;;;;;5033664;28;20213;-57
2022/05/14 08:10:55;;;;;;;1.65;0.98;;;39.80;35.10;;;;;;5032934;28;20214;-56
2022/05/14 08:13:24;;;;;;;2.53;1.20;;;40.00;34.10;;;;;;5033069;28;20221;-56
2022/05/14 08:15:53;;;;;;;1.65;0.82;;;40.20;34.20;;;;;;5032845;28;20268;-56
2022/05/14 08:18:20;;;;;;;2.35;1.13;;;40.10;34.60;;;;;;5032929;28;20292;-57
2022/05/14 08:20:50;;;;;;;2.90;1.08;;;39.70;35.10;;;;;;5033159;28;20202;-57
2022/05/14 08:26:01;;;;;;;2.45;1.02;;;38.50;35.40;;;;;;5032801;28;20220;-56
2022/05/14 08:28:29;;;;;;;3.83;0.90;;;37.50;36.20;;;;;;5032748;28;20229;-57
2022/05/14 08:31:00;;;;;;;2.63;1.10;;;37.10;36.90;;;;;;5032311;28;20674;-57
2022/05/14 08:33:27;;;;;;;3.20;1.27;;;36.90;37.80;;;;;;5032704;28;20241;-56
2022/05/14 08:35:54;;;;;;;2.22;0.80;;;35.80;38.70;;;;;;5032366;28;20237;-57
2022/05/14 08:38:23;;;;;;;2.58;1.00;;;33.90;40.30;;;;;;5032751;28;20234;-57
2022/05/14 08:40:55;;;;;;;3.40;1.17;;;31.40;44.00;;;;;;5032883;28;20214;-57
2022/05/14 08:43:27;;;;;;;3.53;0.98;;;29.10;47.00;;;;;;5032729;28;20205;-56
2022/05/14 08:45:54;;;;;;;3.20;1.50;;;27.00;50.80;;;;;;5032363;28;20588;-57
2022/05/14 08:48:27;;;;;;;3.70;0.90;;;25.90;52.00;;;;;;5032593;28;20534;-57
2022/05/14 08:51:01;;;;;;;3.05;1.30;;;25.10;53.80;;;;;;5032740;28;20210;-57
2022/05/14 08:53:29;;;;;;;2.97;1.05;;;24.60;55.00;;;;;;5032422;28;20222;-57
2022/05/14 08:56:08;;;;;;;6.10;1.13;;;24.30;54.90;;;;;;5032137;28;20276;-58
2022/05/14 08:58:51;;;;;;;4.20;1.40;;;24.10;55.90;;;;;;5032253;28;20294;-57
2022/05/14 09:01:22;;;;;;;3.05;1.02;;;23.80;57.00;;;;;;5032560;28;20214;-57
2022/05/14 09:03:50;;;;;;;2.55;1.45;;;23.50;57.10;;;;;;5032270;28;20202;-56
2022/05/14 09:06:17;;;;;;;2.65;1.17;;;23.40;58.00;;;;;;5032189;28;20242;-58
2022/05/14 09:08:44;;;;;;;2.55;1.35;;;23.30;58.30;;;;;;5032695;28;20206;-57
2022/05/14 09:11:20;;;;;;;4.22;1.20;;;23.20;58.30;;;;;;5032059;28;20214;-58
2022/05/14 09:13:50;;;;;;;6.10;1.40;;;23.20;58.00;;;;;;5032143;28;20256;-57
2022/05/14 09:16:23;;;;;;;5.95;1.25;;;23.10;58.90;;;;;;5031998;28;20639;-58
2022/05/14 09:18:53;;;;;;;3.47;1.40;;;23.00;59.40;;;;;;5032052;28;20579;-56
2022/05/14 09:21:23;;;;;;;2.35;1.05;;;22.70;59.40;;;;;;5032410;28;20296;-58
2022/05/14 09:23:55;;;;;;;3.35;1.23;;;22.60;61.00;;;;;;5032282;28;20399;-56
2022/05/14 09:26:26;;;;;;;2.47;1.00;;;22.40;61.70;;;;;;5032048;28;20229;-57
2022/05/14 09:28:57;;;;;;;4.00;1.30;;;22.10;62.00;;;;;;5032011;28;20293;-57
2022/05/14 09:31:26;;;;;;;3.38;1.10;;;22.00;63.00;;;;;;5031883;28;20245;-57
2022/05/14 09:34:05;;;;;;;5.50;1.70;;;22.00;60.90;;;;;;5031892;28;20580;-57
2022/05/14 09:36:33;;;;;;;6.93;2.45;;;22.20;61.00;;;;;;5032045;28;20229;-57
2022/05/14 09:39:07;;;;;;;6.75;1.10;;;22.30;62.30;;;;;;5031950;28;20285;-58
2022/05/14 09:41:41;;;;;;;4.82;1.73;;;22.40;62.60;;;;;;5031956;28;20320;-56
2022/05/14 09:44:13;;;;;;;2.65;1.20;;;22.30;62.70;;;;;;5031808;28;20202;-57
2022/05/14 09:46:40;;;;;;;4.97;1.33;;;22.40;62.50;;;;;;5031972;28;20233;-58
2022/05/14 09:49:09;;;;;;;2.90;1.38;;;22.60;61.70;;;;;;5031916;28;20202;-57
2022/05/14 09:51:47;;;;;;;5.15;1.50;;;22.70;61.50;;;;;;5031949;28;20202;-57
2022/05/14 09:54:21;;;;;;;4.38;1.77;;;22.80;61.50;;;;;;5031700;28;20705;-58
2022/05/14 09:57:21;;;;;;;3.53;1.60;;;22.90;62.50;;;;;;5032204;28;20342;-58
2022/05/14 10:00:13;;;;;;;5.55;1.60;;;22.90;63.40;;;;;;5032091;28;20206;-59
2022/05/14 10:02:57;;;;;;;3.30;1.30;;;22.90;62.00;;;;;;5031605;28;20737;-58
2022/05/14 10:05:44;;;;;;;2.88;1.02;;;22.90;61.70;;;;;;5031663;28;20293;-58
2022/05/14 10:08:20;;;;;;;3.70;1.65;;;22.70;63.80;;;;;;5032173;28;20207;-58
2022/05/14 10:10:53;;;;;;;4.15;1.40;;;22.70;63.00;;;;;;5031889;28;20213;-58
2022/05/14 10:13:28;;;;;;;3.35;1.27;;;22.70;62.40;;;;;;5031947;28;20210;-58
2022/05/14 10:16:03;;;;;;;3.80;1.42;;;22.70;63.00;;;;;;5031267;28;20773;-57
2022/05/14 10:18:43;;;;;;;4.28;1.40;;;22.80;63.40;;;;;;5031840;28;20279;-58
2022/05/14 10:21:18;;;;;;;3.78;1.52;;;22.60;64.00;;;;;;5031685;28;20212;-59
2022/05/14 10:27:06;;;;;;;4.28;1.67;;;22.60;65.20;;;;;;5035469;28;20714;-57
2022/05/14 10:29:45;;;;;;;3.40;1.35;;;22.90;63.30;;;;;;5035483;28;20206;-59
2022/05/14 10:32:15;;;;;;;5.43;1.60;;;22.90;63.50;;;;;;5035361;28;20202;-57
2022/05/14 10:34:47;;;;;;;5.25;1.65;;;22.90;62.50;;;;;;5034981;28;20230;-59
2022/05/14 10:37:27;;;;;;;4.13;1.63;;;22.90;64.00;;;;;;5035205;28;20230;-59
2022/05/14 10:40:03;;;;;;;4.40;1.50;;;22.80;64.30;;;;;;5034988;28;20218;-58
2022/05/14 10:42:37;;;;;;;3.95;1.20;;;22.70;63.10;;;;;;5034981;28;20252;-58
2022/05/14 10:45:09;;;;;;;2.78;1.20;;;22.70;64.60;;;;;;5034431;28;20205;-58
2022/05/14 10:47:39;;;;;;;4.00;1.35;;;22.80;63.30;;;;;;5034488;28;20230;-57
2022/05/14 10:50:12;;;;;;;4.13;1.45;;;23.00;63.00;;;;;;5034641;28;20206;-57
2022/05/14 10:52:42;;;;;;;5.25;1.20;;;23.30;62.10;;;;;;5034267;28;20206;-64
2022/05/14 10:55:17;;;;;;;4.80;1.45;;;23.50;61.30;;;;;;5034539;28;20650;-57
2022/05/14 10:57:47;;;;;;;3.10;1.20;;;23.60;60.40;;;;;;5034329;28;20276;-58
2022/05/14 11:00:23;;;;;;;7.97;1.95;;;23.60;60.50;;;;;;5034712;28;20241;-57
2022/05/14 11:02:56;;;;;;;3.03;1.42;;;23.50;60.00;;;;;;5033988;28;20232;-57
2022/05/14 11:05:33;;;;;;;5.18;1.40;;;23.60;59.90;;;;;;5034187;28;20260;-58
2022/05/14 11:08:13;;;;;;;2.75;1.40;;;23.70;59.60;;;;;;5034683;28;20713;-58
2022/05/14 11:10:41;;;;;;;3.88;1.90;;;23.70;59.80;;;;;;5034268;28;20727;-58
2022/05/14 11:13:14;;;;;;;4.28;1.35;;;23.70;59.90;;;;;;5033911;28;20272;-58
2022/05/14 11:15:41;;;;;;;3.55;1.35;;;23.60;59.60;;;;;;5033434;28;20236;-57
2022/05/14 11:18:10;;;;;;;6.90;1.50;;;23.50;60.00;;;;;;5034159;28;20210;-58
2022/05/14 11:20:38;;;;;;;4.15;1.35;;;23.40;60.20;;;;;;5034039;28;20218;-57
2022/05/14 11:23:08;;;;;;;3.22;1.00;;;23.50;60.20;;;;;;5033904;28;20217;-58
2022/05/14 11:25:38;;;;;;;5.90;2.58;;;23.70;58.30;;;;;;5033500;28;20207;-57
2022/05/14 11:28:09;;;;;;;3.03;0.90;;;23.90;58.60;;;;;;5033592;28;20214;-57
2022/05/14 11:30:40;;;;;;;4.32;1.40;;;24.10;56.30;;;;;;5033837;28;20583;-58
2022/05/14 11:33:18;;;;;;;3.33;1.15;;;24.10;57.20;;;;;;5033835;28;20267;-57
2022/05/14 11:35:47;;;;;;;3.63;1.23;;;24.20;56.40;;;;;;5032604;28;20321;-57
2022/05/14 11:38:29;;;;;;;3.42;0.73;;;24.30;54.20;;;;;;5033639;28;20210;-57
2022/05/14 11:40:59;;;;;;;2.83;1.10;;;24.30;54.40;;;;;;5033634;28;20206;-56
2022/05/14 11:43:30;;;;;;;3.08;0.80;;;24.40;54.40;;;;;;5034076;28;20206;-57
2022/05/14 11:46:22;;;;;;;2.20;1.00;;;24.40;55.30;;;;;;5033319;28;20222;-57
2022/05/14 11:48:53;;;;;;;3.50;1.00;;;24.40;54.50;;;;;;5033276;28;20206;-57
2022/05/14 11:51:34;;;;;;;2.95;1.23;;;24.40;54.60;;;;;;5033631;28;20209;-57
2022/05/14 11:54:06;;;;;;;2.72;1.00;;;24.40;52.70;;;;;;5033316;28;20591;-57
2022/05/14 11:56:40;;;;;;;3.42;1.10;;;24.50;52.20;;;;;;5033288;28;20226;-57
2022/05/14 11:59:11;;;;;;;4.00;0.77;;;24.60;52.40;;;;;;5033381;28;20236;-57
2022/05/14 12:01:43;;;;;;;1.60;0.80;;;24.80;51.40;;;;;;5033222;28;20302;-57
2022/05/14 12:04:21;;;;;;;2.20;0.90;;;25.00;51.90;;;;;;5032832;28;20210;-57
2022/05/14 12:07:19;;;;;;;3.67;2.08;;;25.10;52.40;;;;;;5032729;28;20288;-57
2022/05/14 12:09:58;;;;;;;4.25;0.93;;;25.00;50.10;;;;;;5032667;28;20597;-58
2022/05/14 12:12:33;;;;;;;3.13;1.27;;;25.00;50.80;;;;;;5032915;28;20209;-56
2022/05/14 12:15:07;;;;;;;3.33;1.00;;;25.00;52.40;;;;;;5032704;28;20222;-57
2022/05/14 12:17:34;;;;;;;5.20;1.05;;;25.00;52.50;;;;;;5033161;28;20317;-59
2022/05/14 12:20:02;;;;;;;4.28;1.42;;;24.80;52.00;;;;;;5033230;28;20268;-58
2022/05/14 12:22:30;;;;;;;2.90;1.40;;;24.70;52.70;;;;;;5033476;28;20589;-55
2022/05/14 12:24:59;;;;;;;3.50;0.90;;;24.90;51.80;;;;;;5033400;28;20277;-58
2022/05/14 12:27:28;;;;;;;3.78;0.95;;;25.10;51.20;;;;;;5032836;28;20229;-59
2022/05/14 12:29:58;;;;;;;2.50;1.10;;;25.20;51.10;;;;;;5032612;28;20217;-57
2022/05/14 12:35:18;;;;;;;2.80;0.80;;;25.40;49.70;;;;;;5032811;28;20241;-57
2022/05/14 12:37:45;;;;;;;3.00;0.73;;;25.50;49.40;;;;;;5032911;28;20230;-57
2022/05/14 12:40:23;;;;;;;2.38;1.00;;;25.50;49.60;;;;;;5032456;28;20689;-57
2022/05/14 12:42:52;;;;;;;0.98;0.60;;;25.20;50.30;;;;;;5032902;28;20202;-58
2022/05/14 12:45:19;;;;;;;1.17;0.77;;;24.90;50.60;;;;;;5032471;28;20202;-58
2022/05/14 12:47:47;;;;;;;2.60;1.00;;;24.70;50.80;;;;;;5031569;28;20783;-58
2022/05/14 12:50:20;;;;;;;3.42;1.00;;;24.80;51.70;;;;;;5032318;28;20229;-58
2022/05/14 12:52:55;;;;;;;3.45;0.70;;;25.00;51.90;;;;;;5032066;28;20202;-56
2022/05/14 12:55:22;;;;;;;2.33;0.90;;;25.00;51.10;;;;;;5031305;28;20229;-58
2022/05/14 12:57:52;;;;;;;1.75;0.90;;;24.90;51.30;;;;;;5031711;28;20596;-58
2022/05/14 13:00:20;;;;;;;3.50;0.85;;;24.80;51.20;;;;;;5031831;28;20203;-56
2022/05/14 13:02:52;;;;;;;2.25;0.80;;;24.70;51.20;;;;;;5031977;28;20233;-57
2022/05/14 13:05:21;;;;;;;1.38;0.80;;;24.70;50.90;;;;;;5031677;28;20301;-57
2022/05/14 13:07:49;;;;;;;3.67;1.00;;;24.90;50.70;;;;;;5031703;28;20242;-57
2022/05/14 13:10:19;;;;;;;2.88;1.20;;;24.90;50.80;;;;;;5031853;28;20210;-58
2022/05/14 13:12:52;;;;;;;3.05;0.77;;;25.10;50.80;;;;;;5031898;28;20213;-57
2022/05/14 13:15:19;;;;;;;2.03;1.02;;;25.20;48.30;;;;;;5031550;28;20230;-58
2022/05/14 13:17:46;;;;;;;4.20;0.98;;;25.10;48.20;;;;;;5031618;28;20229;-58
2022/05/14 13:20:19;;;;;;;3.42;0.93;;;25.10;48.50;;;;;;5031853;28;20213;-57